Terminal Aerodrome Forecast
Issued by NWS Wilmington, OH

Home | Current Version | Previous Version | Text Only | Print | Product List | Glossary On
Versions: 1 2 3 4 5 6 7 8 9 10 11 12 13 14 15 16 17 18 19
000
FTUS41 KILN 222300
TAFCMH
TAF
KCMH 222320Z 2300/2324 17006KT P6SM VCSH SCT050 BKN080
     FM230900 16006KT 5SM -SHRA BKN040 OVC080
     FM231300 15008KT P6SM VCSH BKN040 BKN080
     FM232100 12010G16KT P6SM VCSH BKN040 OVC080
     FM232300 12010G18KT 4SM -SHRA BR OVC025=

USA.gov is the U.S. government's official web portal to all federal, state and local government web resources and services.